Time;durP1;ratioP1;P1;durP2;ratioP2;P2;SDS_P1;SDS_P2;PMS_P1;PMS_P2;Temp;Humidity;BMP_temperature;BMP_pressure;BME280_temperature;BME280_humidity;BME280_pressure;Samples;Min_cycle;Max_cycle;Signal;HPM_P1;HPM_P2
2022/11/24 00:01:27;;;;;;;;;3.00;3.00;;;;;11.41;77.95;-13819.00;4903150;29;45344;-95
2022/11/24 00:03:58;;;;;;;;;4.00;2.00;;;;;11.38;77.93;-14165.81;4903730;29;46301;-95
2022/11/24 00:06:25;;;;;;;;;2.00;1.00;;;;;11.51;78.47;-11829.03;4898722;29;45618;-95
2022/11/24 00:08:51;;;;;;;;;2.33;2.33;;;;;12.16;78.76;-12256.19;4871474;29;45434;-96
2022/11/24 00:11:18;;;;;;;;;1.67;1.67;;;;;10.99;78.28;-14231.41;4904719;29;45426;-96
2022/11/24 00:13:45;;;;;;;;;7.00;3.00;;;;;10.98;78.16;-16072.28;4904739;29;46290;-96
2022/11/24 00:16:32;;;;;;;;;3.33;3.00;;;;;11.50;78.42;-12632.84;4903527;29;45400;-95
2022/11/24 00:19:00;;;;;;;;;9.33;2.00;;;;;11.01;78.72;-11707.88;4897609;29;45524;-94
2022/11/24 00:21:28;;;;;;;;;4.67;3.67;;;;;11.96;78.44;-13519.69;4903856;29;45500;-95
2022/11/24 00:23:53;;;;;;;;;2.00;2.00;;;;;11.18;78.01;-14983.53;4904197;29;45423;-95
2022/11/24 00:26:27;;;;;;;;;4.00;2.67;;;;;11.75;78.01;-16106.41;4875013;29;45347;-94
2022/11/24 00:28:55;;;;;;;;;8.00;1.67;;;;;11.59;78.02;-15413.84;4903649;29;45716;-94
2022/11/24 00:31:26;;;;;;;;;3.00;3.00;;;;;11.76;78.00;-18242.03;4901304;29;45586;-94
2022/11/24 00:33:54;;;;;;;;;1.67;1.67;;;;;11.82;77.94;-18489.53;4903468;29;45474;-93
2022/11/24 00:36:22;;;;;;;;;2.67;1.00;;;;;12.46;77.86;-18785.50;4902933;29;45492;-94
2022/11/24 00:38:55;;;;;;;;;2.33;2.33;;;;;12.56;77.73;-19228.72;4877300;29;45786;-94
2022/11/24 00:41:28;;;;;;;;;9.33;3.67;;;;;12.48;77.63;-19545.00;4901230;29;45465;-95
2022/11/24 00:43:54;;;;;;;;;7.00;2.67;;;;;12.58;77.56;-19547.69;4902985;29;45705;-93
2022/11/24 00:46:20;;;;;;;;;4.33;3.00;;;;;12.57;77.48;-19547.28;4903575;29;45411;-95
2022/11/24 00:48:46;;;;;;;;;5.00;3.00;;;;;11.80;77.39;-19527.22;4903618;29;45375;-94
2022/11/24 00:51:14;;;;;;;;;2.00;2.00;;;;;12.55;76.89;-19546.88;4890682;29;45375;-95
2022/11/24 00:53:40;;;;;;;;;3.67;2.00;;;;;11.15;77.00;-19510.13;4902642;29;47369;-94
2022/11/24 00:56:06;;;;;;;;;4.00;3.00;;;;;11.71;76.64;-19524.66;4903146;29;45446;-95
2022/11/24 00:58:35;;;;;;;;;3.00;2.00;;;;;12.58;76.70;-19547.56;4895853;29;45413;-93
2022/11/24 01:01:02;;;;;;;;;4.33;2.33;;;;;12.64;76.38;-19549.31;4902211;29;45494;-92
2022/11/24 01:03:28;;;;;;;;;5.00;2.00;;;;;11.40;76.44;-19516.59;4885159;29;47193;-94
2022/11/24 01:05:53;;;;;;;;;0.33;0.33;;;;;11.46;75.63;-19518.06;4893016;29;45464;-94
2022/11/24 01:08:19;;;;;;;;;0.00;0.00;;;;;11.65;75.02;-19523.19;4900795;29;45367;-93
2022/11/24 01:10:44;;;;;;;;;3.00;1.00;;;;;11.05;74.88;-19507.28;4902094;29;45749;-92
2022/11/24 01:13:11;;;;;;;;;1.33;1.00;;;;;11.66;74.89;-19523.47;4902432;29;45542;-94
2022/11/24 01:15:37;;;;;;;;;2.00;0.00;;;;;11.30;74.69;-19513.88;4889788;29;45446;-94
2022/11/24 01:18:03;;;;;;;;;3.33;0.67;;;;;12.41;74.39;-19543.13;4902300;29;45352;-92
2022/11/24 01:20:29;;;;;;;;;0.00;0.00;;;;;12.01;74.29;-19532.63;4885586;29;45476;-94
2022/11/24 01:22:54;;;;;;;;;2.00;0.00;;;;;12.03;73.84;-19533.16;4889792;29;47214;-94
2022/11/24 01:25:19;;;;;;;;;0.00;0.00;;;;;12.43;74.26;-19543.66;4900915;29;45597;-93
2022/11/24 01:27:45;;;;;;;;;2.00;0.33;;;;;12.22;74.27;-19538.13;4885424;29;45670;-94
2022/11/24 01:30:11;;;;;;;;;0.00;0.00;;;;;12.14;73.92;-19535.97;4898002;29;45360;-93
2022/11/24 01:32:36;;;;;;;;;2.00;0.00;;;;;10.94;73.99;-19504.59;4883875;29;47638;-95
2022/11/24 01:35:05;;;;;;;;;0.00;0.00;;;;;12.17;73.57;-19536.78;4889968;29;45358;-93
2022/11/24 01:37:31;;;;;;;;;3.00;0.00;;;;;11.88;73.67;-19529.25;4902231;29;45444;-94
2022/11/24 01:39:56;;;;;;;;;2.00;1.00;;;;;11.81;73.33;-19527.50;4885573;29;45292;-93
2022/11/24 01:42:22;;;;;;;;;2.00;0.00;;;;;11.96;73.72;-19531.28;4902138;29;46192;-94
2022/11/24 01:44:50;;;;;;;;;1.00;0.00;;;;;12.32;73.91;-19540.69;4889603;29;45363;-93
2022/11/24 01:47:31;;;;;;;;;0.00;0.00;;;;;12.28;73.54;-19539.75;4902518;29;45535;-94
2022/11/24 01:50:01;;;;;;;;;2.00;0.00;;;;;12.15;73.62;-19536.38;4889712;29;45535;-93
2022/11/24 01:52:48;;;;;;;;;2.67;0.00;;;;;11.32;73.20;-19514.56;4892425;29;45697;-94
2022/11/24 01:55:27;;;;;;;;;0.33;0.00;;;;;11.98;73.43;-19531.94;4889457;29;45479;-93
2022/11/24 01:58:14;;;;;;;;;0.00;0.00;;;;;11.73;73.18;-19525.34;4901142;29;45618;-94
2022/11/24 02:00:44;;;;;;;;;0.00;0.00;;;;;12.08;73.25;-19534.38;4886424;29;45414;-94
2022/11/24 02:03:17;;;;;;;;;2.00;0.33;;;;;12.17;73.31;-19536.78;4895331;29;47036;-94
2022/11/24 02:05:58;;;;;;;;;0.00;0.00;;;;;11.03;73.50;-19506.88;4896965;29;46155;-94
2022/11/24 02:08:41;;;;;;;;;0.00;0.00;;;;;12.15;73.23;-19536.38;4900682;29;45736;-94
2022/11/24 02:11:06;;;;;;;;;1.00;0.00;;;;;11.37;73.09;-19515.91;4891683;29;45794;-94
2022/11/24 02:13:37;;;;;;;;;0.00;0.00;;;;;11.20;73.21;-19511.47;4884461;29;48435;-95
2022/11/24 02:16:07;;;;;;;;;0.00;0.00;;;;;10.85;73.31;-19502.03;4901222;29;45789;-94
2022/11/24 02:18:33;;;;;;;;;0.00;0.00;;;;;11.08;73.77;-19508.09;4898883;29;45511;-94
2022/11/24 02:20:59;;;;;;;;;0.00;0.00;;;;;11.86;73.56;-19528.72;4891516;29;45621;-94
2022/11/24 02:23:48;;;;;;;;;0.67;0.00;;;;;11.29;73.83;-19513.63;4881707;29;47837;-92
2022/11/24 02:26:43;;;;;;;;;1.00;0.00;;;;;12.10;74.07;-19534.91;4888387;28;45325;-93
2022/11/24 02:29:10;;;;;;;;;1.00;0.00;;;;;11.96;74.45;-19531.41;4884327;29;45276;-94
2022/11/24 02:31:40;;;;;;;;;0.00;0.00;;;;;12.06;74.88;-19533.81;4892359;29;45679;-93
2022/11/24 02:34:05;;;;;;;;;0.00;0.00;;;;;11.93;74.90;-19530.47;4885630;29;45880;-94
2022/11/24 02:36:31;;;;;;;;;0.00;0.00;;;;;10.77;74.91;-19500.00;4877044;29;45427;-93
2022/11/24 02:38:56;;;;;;;;;0.00;0.00;;;;;11.93;75.22;-19530.59;4901273;29;45407;-93
2022/11/24 02:41:28;;;;;;;;;0.00;0.00;;;;;11.52;75.25;-19519.69;4900875;29;45588;-94
2022/11/24 02:43:56;;;;;;;;;1.00;0.00;;;;;11.82;75.44;-19527.75;4900764;29;45350;-94
2022/11/24 02:46:24;;;;;;;;;0.00;0.00;;;;;11.96;76.00;-19531.41;4900976;29;45425;-94
2022/11/24 02:48:49;;;;;;;;;3.00;0.00;;;;;11.97;76.07;-19531.53;4893812;29;46656;-94
2022/11/24 02:51:16;;;;;;;;;0.00;0.00;;;;;11.91;76.62;-19530.06;4878638;29;45469;-94
2022/11/24 02:53:41;;;;;;;;;2.67;0.33;;;;;11.46;77.15;-19518.06;4900807;29;46368;-93
2022/11/24 02:56:07;;;;;;;;;0.00;0.00;;;;;11.13;76.92;-19509.56;4900829;29;45788;-93
2022/11/24 02:58:32;;;;;;;;;0.33;0.00;;;;;10.97;77.14;-19505.25;4880601;29;45235;-92
2022/11/24 03:00:58;;;;;;;;;2.00;1.00;;;;;11.48;77.63;-19518.59;4875533;29;45592;-94
2022/11/24 03:03:25;;;;;;;;;0.33;0.33;;;;;11.81;77.85;-19225.09;4900547;29;45484;-92
2022/11/24 03:05:50;;;;;;;;;0.00;0.00;;;;;11.28;77.63;-17800.50;4883826;29;46067;-93
2022/11/24 03:08:16;;;;;;;;;1.00;0.00;;;;;11.98;78.15;-18376.84;4901032;29;45319;-94
2022/11/24 03:10:42;;;;;;;;;0.00;0.00;;;;;11.89;77.94;-17490.91;4882667;29;45407;-93
2022/11/24 03:13:12;;;;;;;;;0.67;0.67;;;;;11.88;78.44;-15811.03;4882488;29;47960;-94
2022/11/24 03:15:38;;;;;;;;;2.00;0.00;;;;;11.55;78.41;-16493.63;4880285;29;45454;-94
2022/11/24 03:18:03;;;;;;;;;0.00;0.00;;;;;11.50;78.33;-16282.56;4892837;29;45478;-93
2022/11/24 03:20:29;;;;;;;;;0.00;0.00;;;;;10.45;78.22;-14912.63;4900673;29;45403;-92
2022/11/24 03:22:55;;;;;;;;;0.00;0.00;;;;;11.39;78.35;-15342.44;4883368;29;47931;-94
2022/11/24 03:25:21;;;;;;;;;0.00;0.00;;;;;11.35;78.62;-13742.78;4883735;29;45335;-92
2022/11/24 03:27:46;;;;;;;;;0.00;0.00;;;;;11.60;78.67;-13710.75;4899822;29;45293;-94
2022/11/24 03:30:13;;;;;;;;;0.67;0.00;;;;;10.65;78.83;-13412.25;4903705;29;45274;-92
2022/11/24 03:32:39;;;;;;;;;1.67;1.00;;;;;11.63;78.86;-13291.09;4903782;29;47120;-93
2022/11/24 03:35:04;;;;;;;;;1.00;1.00;;;;;11.52;78.64;-13463.06;4903779;29;45568;-94
2022/11/24 03:37:30;;;;;;;;;1.00;1.00;;;;;11.77;78.89;-13838.13;4901997;29;45372;-94
2022/11/24 03:39:56;;;;;;;;;2.00;1.00;;;;;11.46;79.00;-13744.63;4886873;29;45713;-94
2022/11/24 03:42:21;;;;;;;;;1.33;1.00;;;;;11.68;78.89;-13922.03;4879540;29;46871;-93
2022/11/24 03:44:47;;;;;;;;;2.33;0.00;;;;;10.90;78.59;-13017.53;4902558;29;45694;-94
2022/11/24 03:47:12;;;;;;;;;0.00;0.00;;;;;11.26;79.04;-13326.44;4902042;29;45621;-93
2022/11/24 03:49:43;;;;;;;;;4.00;1.67;;;;;11.14;78.85;-16220.59;4903646;29;45210;-94
2022/11/24 03:52:08;;;;;;;;;1.00;0.00;;;;;11.61;78.65;-16124.38;4900213;29;46550;-93
2022/11/24 03:54:34;;;;;;;;;2.00;0.67;;;;;11.28;78.90;-15954.13;4892373;29;46014;-93
2022/11/24 03:57:00;;;;;;;;;0.00;0.00;;;;;11.72;78.47;-16105.78;4885684;29;45400;-93
2022/11/24 03:59:25;;;;;;;;;0.67;0.67;;;;;11.42;78.50;-18298.44;4889034;28;45395;-93
2022/11/24 04:01:51;;;;;;;;;0.67;0.00;;;;;10.92;78.56;-16945.84;4875485;29;47516;-92
2022/11/24 04:04:16;;;;;;;;;2.00;0.33;;;;;11.69;78.50;-16294.34;4893828;29;45681;-93
2022/11/24 04:06:42;;;;;;;;;0.67;0.00;;;;;11.77;78.67;-18172.22;4902187;29;45456;-93
2022/11/24 04:09:08;;;;;;;;;0.00;0.00;;;;;10.74;78.18;-18592.31;4874432;29;45446;-93
2022/11/24 04:14:29;;;;;;;;;1.00;1.00;;;;;10.97;78.43;-16610.50;4902782;29;45494;-95
2022/11/24 04:16:55;;;;;;;;;3.00;1.00;;;;;11.62;78.75;-16223.06;4878335;29;45294;-94
2022/11/24 04:19:21;;;;;;;;;5.00;0.67;;;;;10.65;78.78;-14499.69;4898900;29;45549;-93
2022/11/24 04:21:55;;;;;;;;;3.67;1.67;;;;;11.25;79.07;-12919.41;4894588;29;46355;-95
2022/11/24 04:24:20;;;;;;;;;0.67;0.67;;;;;10.83;79.14;-13008.56;4902414;29;45451;-94
2022/11/24 04:26:46;;;;;;;;;1.00;1.00;;;;;11.52;79.10;-11759.13;4886339;29;45428;-94
2022/11/24 04:29:12;;;;;;;;;3.00;0.00;;;;;11.51;79.06;-12155.84;4900870;29;45446;-94
2022/11/24 04:31:38;;;;;;;;;1.00;1.00;;;;;11.57;78.97;-12330.53;4898095;29;45579;-93
2022/11/24 04:34:03;;;;;;;;;3.00;1.00;;;;;11.55;79.28;-11357.38;4902652;29;45505;-95
2022/11/24 04:36:29;;;;;;;;;3.00;1.00;;;;;10.38;79.15;-12175.66;4902957;29;45350;-93
2022/11/24 04:38:55;;;;;;;;;0.00;0.00;;;;;11.23;79.30;-11098.97;4902158;29;45386;-91
2022/11/24 04:41:20;;;;;;;;;1.67;0.00;;;;;11.50;79.39;-9986.69;4902394;29;45394;-93
2022/11/24 04:43:48;;;;;;;;;1.33;0.67;;;;;11.09;79.41;-9502.34;4883116;29;45481;-94
2022/11/24 04:46:14;;;;;;;;;3.00;0.00;;;;;11.14;79.47;-9461.44;4891928;29;45335;-95
2022/11/24 04:48:40;;;;;;;;;4.33;1.33;;;;;11.22;79.50;-9659.38;4882779;29;45522;-94
2022/11/24 04:51:06;;;;;;;;;0.67;0.67;;;;;10.89;79.47;-9992.97;4898257;29;46391;-95
2022/11/24 04:53:31;;;;;;;;;0.67;0.00;;;;;11.20;79.50;-8665.53;4899384;29;45332;-94
2022/11/24 04:55:57;;;;;;;;;1.33;1.00;;;;;11.46;79.67;-9524.31;4867138;29;45562;-95
2022/11/24 04:58:23;;;;;;;;;2.00;1.00;;;;;10.83;79.65;-9984.47;4896215;29;45835;-93
2022/11/24 05:00:48;;;;;;;;;1.00;0.33;;;;;11.29;79.52;-11411.03;4880888;29;46706;-94
2022/11/24 05:03:13;;;;;;;;;0.00;0.00;;;;;11.31;79.30;-11167.53;4901937;29;45459;-94
2022/11/24 05:05:39;;;;;;;;;0.33;0.00;;;;;11.25;79.47;-12582.41;4902637;29;45340;-94
2022/11/24 05:08:05;;;;;;;;;1.67;1.00;;;;;10.38;78.85;-13040.28;4884679;29;45540;-94
2022/11/24 05:10:33;;;;;;;;;0.67;0.00;;;;;10.90;79.18;-13815.38;4872176;29;46855;-95
2022/11/24 05:12:59;;;;;;;;;1.33;0.00;;;;;10.19;79.18;-13769.47;4879954;29;45303;-94
2022/11/24 05:15:45;;;;;;;;;0.00;0.00;;;;;9.91;78.71;-15119.44;4870599;28;45413;-95
2022/11/24 05:18:12;;;;;;;;;1.00;1.00;;;;;10.63;78.86;-16897.97;4900557;29;45399;-94
2022/11/24 05:20:43;;;;;;;;;2.00;0.67;;;;;10.93;78.96;-16068.72;4897495;29;46693;-92
2022/11/24 05:23:15;;;;;;;;;2.33;1.00;;;;;9.99;78.83;-16082.56;4894167;29;45377;-93
2022/11/24 05:25:41;;;;;;;;;0.00;0.00;;;;;11.36;78.61;-16131.97;4899334;29;45474;-94
2022/11/24 05:28:08;;;;;;;;;2.00;0.33;;;;;10.68;78.91;-15706.38;4900827;29;45606;-95
2022/11/24 05:30:39;;;;;;;;;0.67;0.00;;;;;11.09;79.11;-15450.44;4900778;29;45570;-94
2022/11/24 05:33:06;;;;;;;;;3.00;0.67;;;;;11.27;79.23;-14987.69;4891862;29;45387;-93
2022/11/24 05:35:32;;;;;;;;;1.00;1.00;;;;;11.41;79.19;-14954.13;4893053;29;45500;-94
2022/11/24 05:37:58;;;;;;;;;1.67;1.00;;;;;10.72;79.40;-14708.09;4898662;29;45348;-93
2022/11/24 05:40:25;;;;;;;;;1.33;1.00;;;;;10.22;78.97;-13221.47;4880575;29;48152;-94
2022/11/24 05:42:51;;;;;;;;;3.00;1.00;;;;;10.87;79.56;-11503.84;4880589;29;45519;-94
2022/11/24 05:45:19;;;;;;;;;1.00;1.00;;;;;10.46;79.41;-12842.16;4897222;29;45353;-94
2022/11/24 05:47:47;;;;;;;;;2.00;1.00;;;;;11.02;79.23;-12809.53;4879016;29;45479;-94
2022/11/24 05:50:14;;;;;;;;;2.00;1.00;;;;;11.14;79.51;-12663.72;4881452;29;46769;-94
2022/11/24 05:52:40;;;;;;;;;1.00;1.00;;;;;10.18;79.64;-11973.34;4881071;29;45557;-94
2022/11/24 05:55:06;;;;;;;;;2.33;0.00;;;;;11.45;79.47;-12066.78;4884180;29;45696;-94
2022/11/24 05:57:32;;;;;;;;;1.00;1.00;;;;;11.44;79.55;-12170.31;4889319;29;45620;-93
2022/11/24 05:59:58;;;;;;;;;2.33;1.00;;;;;11.43;79.31;-12286.84;4901876;28;45710;-93
2022/11/24 06:02:23;;;;;;;;;2.33;0.00;;;;;11.22;79.59;-12174.88;4901196;28;45443;-93
2022/11/24 06:04:49;;;;;;;;;2.67;1.00;;;;;10.64;79.23;-11744.28;4884651;29;45344;-94
2022/11/24 06:07:15;;;;;;;;;5.00;2.00;;;;;10.63;79.30;-11080.91;4884798;29;45569;-91
2022/11/24 06:09:42;;;;;;;;;1.00;1.00;;;;;11.45;79.66;-10271.56;4884183;29;46956;-92
2022/11/24 06:12:09;;;;;;;;;0.00;0.00;;;;;10.58;79.75;-10974.09;4901877;29;45442;-92
2022/11/24 06:14:36;;;;;;;;;3.33;1.00;;;;;9.94;79.68;-9319.69;4891159;29;45267;-95
2022/11/24 06:17:03;;;;;;;;;5.00;2.00;;;;;11.47;80.16;-8766.50;4859894;29;45474;-95
2022/11/24 06:19:35;;;;;;;;;2.00;2.00;;;;;10.03;79.43;-11031.78;4883830;29;48337;-95
2022/11/24 06:22:01;;;;;;;;;4.00;2.00;;;;;10.29;79.66;-11441.72;4902653;29;45408;-96
2022/11/24 06:28:07;;;;;;;;;2.00;0.00;;;;;9.92;79.68;-9417.88;4845690;29;45350;-95
2022/11/24 06:30:33;;;;;;;;;1.33;1.33;;;;;9.72;79.72;-8683.25;4801052;29;45633;-95
2022/11/24 06:36:21;;;;;;;;;2.00;2.00;;;;;9.90;80.12;-5669.66;4849398;29;45542;-96
2022/11/24 06:39:39;;;;;;;;;2.00;1.00;;;;;11.32;80.41;-3885.63;4850038;29;45872;-92
2022/11/24 06:42:09;;;;;;;;;2.67;1.00;;;;;10.03;80.45;-885.09;4841928;29;46437;-91
2022/11/24 06:44:36;;;;;;;;;1.00;1.00;;;;;11.12;80.34;-1286.78;4839569;29;45519;-95
2022/11/24 06:47:01;;;;;;;;;2.00;0.00;;;;;10.33;80.32;-1509.72;4840049;29;45514;-91
2022/11/24 06:49:29;;;;;;;;;3.33;1.00;;;;;11.32;80.91;-763.50;4842516;29;45660;-90
2022/11/24 06:52:00;;;;;;;;;1.00;1.00;;;;;10.82;80.85;-284.63;4840762;29;47963;-96
2022/11/24 07:03:16;;;;;;;;;1.33;1.00;;;;;9.73;80.81;2482.31;5273701;23;45470;-87
2022/11/24 07:05:42;;;;;;;;;2.00;1.00;;;;;9.96;80.70;4783.50;4884742;29;45832;-91
2022/11/24 07:08:15;;;;;;;;;3.00;2.00;;;;;11.21;81.08;5775.91;4889051;29;45603;-95
2022/11/24 07:10:43;;;;;;;;;1.67;1.67;;;;;10.31;81.11;5453.59;4896578;29;45609;-88
2022/11/24 07:13:09;;;;;;;;;3.00;2.00;;;;;10.80;81.40;7678.38;4885188;29;48144;-90
2022/11/24 07:18:16;;;;;;;;;3.00;2.00;;;;;11.25;81.64;9114.56;5121104;23;67645;-89
2022/11/24 07:20:42;;;;;;;;;6.00;2.00;;;;;10.63;81.65;8623.22;4876716;29;46621;-89
2022/11/24 07:23:16;;;;;;;;;1.67;1.67;;;;;10.75;81.08;9665.00;4894231;29;45895;-88
2022/11/24 07:25:42;;;;;;;;;1.00;1.00;;;;;10.08;81.53;8990.28;4889366;29;45650;-87
2022/11/24 07:28:07;;;;;;;;;2.00;2.00;;;;;10.69;81.52;9455.25;4890140;29;46130;-91
2022/11/24 07:30:33;;;;;;;;;2.67;1.00;;;;;10.60;81.27;8919.59;4877104;29;45657;-91
2022/11/24 07:33:00;;;;;;;;;2.00;2.00;;;;;10.29;81.65;7789.28;4889618;29;45806;-90
2022/11/24 07:35:26;;;;;;;;;1.33;1.33;;;;;10.52;81.68;7553.94;5065951;23;45439;-87
2022/11/24 07:37:56;;;;;;;;;1.67;1.67;;;;;10.53;81.08;7673.84;4899795;29;45798;-88
2022/11/24 07:40:33;;;;;;;;;1.33;1.33;;;;;9.96;81.21;7221.75;4892543;29;45703;-93
2022/11/24 07:43:10;;;;;;;;;1.00;1.00;;;;;11.37;81.44;7112.41;4897464;29;46366;-90
2022/11/24 07:46:24;;;;;;;;;1.00;1.00;;;;;10.04;81.17;7865.53;4898925;29;45311;-85
2022/11/24 07:48:52;;;;;;;;;3.00;2.00;;;;;11.40;81.43;6182.47;4901167;29;45337;-89
2022/11/24 07:51:18;;;;;;;;;1.33;1.33;;;;;10.87;81.75;8223.97;4886778;29;45543;-88
2022/11/24 07:53:46;;;;;;;;;3.00;3.00;;;;;10.49;81.34;8459.28;4892390;29;45419;-87
2022/11/24 07:56:12;;;;;;;;;4.33;2.33;;;;;10.50;81.47;8797.84;4891829;28;45593;-89
2022/11/24 07:58:38;;;;;;;;;5.33;4.00;;;;;10.01;81.83;9163.09;4883913;28;45755;-90
2022/11/24 08:01:13;;;;;;;;;4.67;2.33;;;;;11.46;81.96;8928.31;4902876;28;45598;-92
2022/11/24 08:03:39;;;;;;;;;3.00;2.00;;;;;10.68;81.59;9478.59;4901734;29;46388;-92
2022/11/24 08:06:08;;;;;;;;;4.67;2.00;;;;;10.03;81.62;9798.53;4890395;29;45374;-92
2022/11/24 08:08:36;;;;;;;;;3.00;1.00;;;;;11.53;81.68;10581.06;4902684;29;45379;-92
2022/11/24 08:11:11;;;;;;;;;1.00;1.00;;;;;10.58;81.83;9346.28;4888176;29;45462;-92
2022/11/24 08:13:37;;;;;;;;;3.00;3.00;;;;;10.81;81.83;9494.19;4911432;28;47087;-91
2022/11/24 08:16:24;;;;;;;;;3.67;2.33;;;;;11.64;81.97;9500.47;4898588;29;46409;-91
2022/11/24 08:18:54;;;;;;;;;2.33;1.33;;;;;11.67;81.55;6475.81;4892985;28;45384;-91
2022/11/24 08:21:22;;;;;;;;;3.33;2.67;;;;;10.74;81.56;6576.09;4904909;23;45498;-92
2022/11/24 08:23:55;;;;;;;;;4.00;2.00;;;;;11.73;81.59;6672.41;4872321;29;46504;-91
2022/11/24 08:26:23;;;;;;;;;3.00;2.00;;;;;10.34;81.81;5971.59;4882574;29;45648;-92
2022/11/24 08:31:17;;;;;;;;;2.00;2.00;;;;;10.38;81.65;5347.88;4957600;23;58031;-93
2022/11/24 08:33:46;;;;;;;;;3.00;1.00;;;;;11.13;81.60;3444.69;4884736;29;46639;-96
2022/11/24 08:36:20;;;;;;;;;3.67;2.00;;;;;11.19;81.18;533.69;4910733;29;45285;-95
2022/11/24 08:38:48;;;;;;;;;3.33;2.00;;;;;10.07;81.10;1202.31;4918189;28;45439;-93
2022/11/24 08:41:52;;;;;;;;;5.00;2.00;;;;;10.86;81.36;804.75;4907498;28;45666;-95
2022/11/24 08:44:18;;;;;;;;;2.00;2.00;;;;;12.03;81.74;4835.88;4954239;23;46423;-84
2022/11/24 08:56:21;;;;;;;;;3.00;1.67;;;;;10.76;81.09;936.69;4893381;23;46191;-93
2022/11/24 08:58:49;;;;;;;;;5.67;2.00;;;;;10.51;81.57;6106.75;4872820;29;45502;-95
2022/11/24 09:04:11;;;;;;;;;3.33;2.00;;;;;11.41;82.75;13336.84;4910869;23;45443;-94
2022/11/24 09:07:01;;;;;;;;;2.00;2.00;;;;;11.97;82.08;7161.38;4884420;29;45710;-93
2022/11/24 09:09:26;;;;;;;;;3.33;3.00;;;;;11.06;81.70;6945.69;4896812;29;45452;-92
2022/11/24 09:11:52;;;;;;;;;3.00;1.00;;;;;11.14;81.55;3299.00;4890630;29;45431;-92
2022/11/24 09:14:18;;;;;;;;;2.00;2.00;;;;;11.13;81.45;353.91;4901820;29;46169;-92
2022/11/24 09:16:43;;;;;;;;;5.00;2.00;;;;;11.20;81.53;2042.69;4901542;29;45532;-91
2022/11/24 09:19:09;;;;;;;;;3.33;3.33;;;;;11.28;81.32;-347.56;4896668;29;45530;-93
2022/11/24 09:21:37;;;;;;;;;5.00;2.00;;;;;12.07;81.53;1124.91;4901830;29;45388;-93
2022/11/24 09:24:06;;;;;;;;;5.67;1.00;;;;;10.81;81.26;-1864.44;4894792;29;45309;-92
2022/11/24 09:26:34;;;;;;;;;2.67;2.00;;;;;11.90;81.06;-5940.53;4900875;28;46338;-94
2022/11/24 09:29:01;;;;;;;;;3.00;3.00;;;;;12.48;80.50;-12003.63;4889156;29;45436;-94
2022/11/24 09:31:29;;;;;;;;;4.33;2.00;;;;;12.21;80.22;-16103.06;4893394;28;45414;-94
2022/11/24 09:34:00;;;;;;;;;2.00;2.00;;;;;12.71;80.02;-16136.75;4899326;29;45586;-91
2022/11/24 09:36:27;;;;;;;;;2.00;2.00;;;;;12.79;79.81;-18959.66;4900442;28;48019;-94
2022/11/24 09:38:52;;;;;;;;;6.00;3.00;;;;;11.93;79.11;-19530.47;4903918;28;45454;-94
2022/11/24 09:41:48;;;;;;;;;5.33;3.33;;;;;12.93;78.68;-19556.72;4900937;29;45276;-94
2022/11/24 09:44:36;;;;;;;;;3.67;3.00;;;;;11.93;78.78;-19530.47;4904881;28;45709;-94
2022/11/24 09:47:40;;;;;;;;;4.00;3.00;;;;;11.70;78.79;-19524.41;4898428;29;46421;-92
2022/11/24 09:50:17;;;;;;;;;4.33;2.00;;;;;12.70;78.26;-19550.66;4825287;29;45488;-94
2022/11/24 09:52:52;;;;;;;;;4.67;3.00;;;;;13.19;78.09;-19563.72;4824850;29;45501;-95
2022/11/24 09:55:33;;;;;;;;;5.67;2.00;;;;;13.03;78.02;-19559.41;5013341;23;45835;-94
2022/11/24 09:58:07;;;;;;;;;7.33;3.00;;;;;13.25;77.67;-19565.19;4881406;29;47786;-93
2022/11/24 10:00:33;;;;;;;;;2.00;2.00;;;;;12.53;77.37;-19546.34;4891764;29;45261;-94
2022/11/24 10:02:58;;;;;;;;;3.00;3.00;;;;;12.33;77.89;-19540.97;4900655;29;45436;-95
2022/11/24 10:05:31;;;;;;;;;4.00;2.00;;;;;11.80;77.56;-19527.09;4883609;29;45431;-93
2022/11/24 10:08:44;;;;;;;;;4.33;2.00;;;;;13.39;77.05;-19568.81;4902248;29;46283;-92
2022/11/24 10:11:30;;;;;;;;;3.67;2.33;;;;;13.36;77.12;-19568.00;4881311;29;45400;-95
2022/11/24 10:14:18;;;;;;;;;2.00;2.00;;;;;12.77;77.09;-19552.69;4869046;29;45357;-93
2022/11/24 10:17:20;;;;;;;;;9.67;3.00;;;;;13.49;77.18;-19571.66;4893507;29;45526;-93
2022/11/24 10:20:03;;;;;;;;;2.67;2.33;;;;;13.55;77.25;-19573.00;4903724;29;46655;-92
2022/11/24 10:22:43;;;;;;;;;5.67;2.67;;;;;13.49;76.91;-19571.66;4900504;29;45373;-93
2022/11/24 10:25:12;;;;;;;;;7.00;4.00;;;;;13.56;77.33;-19573.41;4883542;29;45502;-88
2022/11/24 10:27:46;;;;;;;;;4.00;3.00;;;;;13.11;77.13;-19561.56;4897490;29;45466;-88
2022/11/24 10:30:29;;;;;;;;;8.00;1.67;;;;;13.59;76.66;-19574.06;4881931;29;46686;-87
2022/11/24 10:33:00;;;;;;;;;7.33;3.00;;;;;12.71;76.50;-19551.06;4881858;29;45702;-88
2022/11/24 10:35:34;;;;;;;;;5.33;3.00;;;;;12.36;76.67;-19541.78;4880975;29;45648;-86
2022/11/24 10:44:10;;;;;;;;;2.67;1.67;;;;;12.87;76.24;-19555.22;5767141;23;46086;-86
2022/11/24 10:46:38;;;;;;;;;2.00;1.67;;;;;12.37;76.20;-19542.03;4891165;29;45686;-88
2022/11/24 10:52:07;;;;;;;;;4.00;3.00;;;;;13.48;76.60;-19571.25;4883210;29;45527;-91
2022/11/24 10:57:39;;;;;;;;;2.00;0.33;;;;;12.72;75.99;-19551.34;4937389;23;45475;-89
2022/11/24 11:03:20;;;;;;;;;6.00;5.00;;;;;12.20;76.41;-19537.75;4907654;23;45533;-90
2022/11/24 11:05:56;;;;;;;;;2.67;2.33;;;;;13.74;76.17;-19578.09;4946222;23;45562;-87
2022/11/24 11:08:29;;;;;;;;;3.67;3.00;;;;;13.85;76.02;-19580.91;4901599;29;45517;-86
2022/11/24 11:11:28;;;;;;;;;5.33;2.33;;;;;13.92;76.36;-19582.81;4909066;23;45530;-87
2022/11/24 11:14:04;;;;;;;;;2.33;2.33;;;;;13.47;76.05;-19571.09;4892952;29;46975;-89
2022/11/24 11:16:34;;;;;;;;;2.33;2.33;;;;;12.82;75.67;-19553.88;4884789;29;46092;-89
2022/11/24 11:19:26;;;;;;;;;3.00;2.00;;;;;12.62;75.69;-19548.63;4902218;28;45446;-88
2022/11/24 11:22:12;;;;;;;;;1.33;1.00;;;;;12.96;74.39;-19557.66;4882037;29;45695;-88
2022/11/24 11:33:27;;;;;;;;;9.00;3.00;;;;;13.97;74.03;-19584.16;5077099;23;45792;-90
2022/11/24 11:39:51;;;;;;;;;4.33;4.33;;;;;13.05;72.85;-19559.94;4909099;23;45477;-94
2022/11/24 11:55:26;;;;;;;;;;;;;;;;;;;;;
2022/11/24 12:03:25;;;;;;;;;3.33;2.33;;;;;15.33;69.66;-19619.72;5352023;23;46252;-93
2022/11/24 12:06:32;;;;;;;;;2.00;1.33;;;;;15.37;68.93;-19620.94;4859140;29;45478;-94
2022/11/24 12:09:23;;;;;;;;;1.67;1.67;;;;;15.41;68.43;-19622.00;4875751;29;45379;-93
2022/11/24 12:12:51;;;;;;;;;3.67;1.00;;;;;14.95;69.02;-19609.81;4867885;29;46840;-94
2022/11/24 12:18:32;;;;;;;;;1.67;1.67;;;;;15.20;68.36;-19616.38;5155854;23;45268;-93
2022/11/24 12:21:24;;;;;;;;;1.33;1.33;;;;;15.46;68.39;-19623.09;4903462;29;45498;-93
2022/11/24 12:24:25;;;;;;;;;;;;;;;;;;;;;
2022/11/24 12:27:28;;;;;;;;;3.33;2.00;;;;;15.75;67.77;-19630.72;4850761;29;72086;-93
2022/11/24 12:30:15;;;;;;;;;2.00;2.00;;;;;15.48;67.53;-19623.63;4892579;29;45270;-93
2022/11/24 12:33:02;;;;;;;;;3.67;2.33;;;;;15.62;68.16;-19627.50;4910118;23;45455;-94
2022/11/24 12:38:45;;;;;;;;;4.00;3.00;;;;;15.26;67.94;-19617.84;4903146;23;71980;-85
2022/11/24 12:41:50;;;;;;;;;3.33;3.00;;;;;15.63;68.09;-19627.78;4894317;23;45541;-89
2022/11/24 12:46:54;;;;;;;;;3.33;3.00;;;;;15.35;68.20;-19620.41;4935853;23;74254;-85
2022/11/24 12:49:41;;;;;;;;;2.67;2.00;;;;;15.33;68.21;-19619.72;4932469;23;45549;-86
2022/11/24 12:53:03;;;;;;;;;4.33;3.33;;;;;13.97;68.36;-19584.16;4901234;23;45474;-92
2022/11/24 12:55:32;;;;;;;;;6.67;3.00;;;;;15.32;68.55;-19619.59;4871801;29;45466;-84
2022/11/24 12:58:35;;;;;;;;;3.67;2.00;;;;;15.58;68.83;-19626.44;4880745;29;46956;-84
2022/11/24 13:01:47;;;;;;;;;4.33;3.00;;;;;15.55;68.90;-19625.50;4878967;29;45569;-84
2022/11/24 13:04:36;;;;;;;;;5.00;3.00;;;;;15.59;68.65;-19626.72;4852136;29;45808;-84
2022/11/24 13:07:24;;;;;;;;;2.00;2.00;;;;;14.49;68.54;-19597.84;4879495;29;45404;-83
2022/11/24 13:16:49;;;;;;;;;3.67;3.67;;;;;13.76;68.00;-19578.63;4954037;23;45579;-88
2022/11/24 13:19:30;;;;;;;;;8.33;4.67;;;;;15.70;68.96;-19629.53;4875317;29;45575;-88
2022/11/24 13:22:11;;;;;;;;;6.67;4.00;;;;;15.72;68.70;-19629.94;4957218;23;48258;-89
2022/11/24 13:24:38;;;;;;;;;8.67;3.33;;;;;14.48;68.50;-19597.44;4883437;23;45539;-87
2022/11/24 13:27:13;;;;;;;;;4.00;3.00;;;;;15.67;68.37;-19628.59;4874308;23;45360;-87
2022/11/24 13:36:24;;;;;;;;;7.67;2.67;;;;;15.63;67.45;-19627.63;4881986;23;45506;-85
2022/11/24 13:38:53;;;;;;;;;4.33;3.33;;;;;15.54;67.02;-19625.34;4859976;29;45750;-86